Time;durP1;ratioP1;P1;durP2;ratioP2;P2;SDS_P1;SDS_P2;PMS_P1;PMS_P2;Temp;Humidity;BMP_temperature;BMP_pressure;BME280_temperature;BME280_humidity;BME280_pressure;Samples;Min_cycle;Max_cycle;Signal;HPM_P1;HPM_P2
2022/07/26 00:01:18;;;;;;;1.30;1.20;;;;;;;;;;5075066;28;20280;-83
2022/07/26 00:03:47;;;;;;;2.17;1.97;;;;;;;;;;5081717;28;20297;-83
2022/07/26 00:06:16;;;;;;;2.53;1.17;;;;;;;;;;5073681;28;20199;-83
2022/07/26 00:08:46;;;;;;;1.83;1.30;;;;;;;;;;5074784;28;20259;-83
2022/07/26 00:11:14;;;;;;;2.13;1.67;;;;;;;;;;5073118;28;20209;-83
2022/07/26 00:13:43;;;;;;;0.93;0.93;;;;;;;;;;5088590;28;20212;-83
2022/07/26 00:16:12;;;;;;;1.30;1.20;;;;;;;;;;5084558;28;20203;-84
2022/07/26 00:18:42;;;;;;;1.03;1.03;;;;;;;;;;5093503;28;20191;-83
2022/07/26 00:21:11;;;;;;;1.70;1.10;;;;;;;;;;5083122;28;20203;-83
2022/07/26 00:23:39;;;;;;;2.83;1.63;;;;;;;;;;5072753;28;20228;-83
2022/07/26 00:26:08;;;;;;;0.67;0.57;;;;;;;;;;5073584;28;20201;-83
2022/07/26 00:28:36;;;;;;;1.10;1.03;;;;;;;;;;5085152;28;20202;-83
2022/07/26 00:31:04;;;;;;;4.20;1.77;;;;;;;;;;5073856;28;20226;-84
2022/07/26 00:33:33;;;;;;;1.57;1.37;;;;;;;;;;5072778;28;20195;-83
2022/07/26 00:36:03;;;;;;;0.83;0.83;;;;;;;;;;5073831;28;20229;-84
2022/07/26 00:38:31;;;;;;;3.07;1.10;;;;;;;;;;5072836;28;20204;-84
2022/07/26 00:41:00;;;;;;;1.23;1.17;;;;;;;;;;5087035;28;20213;-83
2022/07/26 00:43:28;;;;;;;0.53;0.53;;;;;;;;;;5085374;28;20264;-83
2022/07/26 00:45:57;;;;;;;2.53;1.03;;;;;;;;;;5088691;28;20204;-84
2022/07/26 00:48:25;;;;;;;2.53;1.07;;;;;;;;;;5083637;28;20231;-84
2022/07/26 00:50:55;;;;;;;1.97;1.60;;;;;;;;;;5094007;28;20203;-84
2022/07/26 00:53:24;;;;;;;0.97;0.73;;;;;;;;;;5083926;28;20210;-84
2022/07/26 00:55:53;;;;;;;0.70;0.70;;;;;;;;;;5085948;28;20208;-84
2022/07/26 00:58:21;;;;;;;2.60;0.93;;;;;;;;;;5072289;28;20206;-82
2022/07/26 01:00:50;;;;;;;1.40;1.10;;;;;;;;;;5073879;28;20209;-82
2022/07/26 01:03:18;;;;;;;3.37;1.03;;;;;;;;;;5072356;28;20235;-84
2022/07/26 01:05:47;;;;;;;0.97;0.97;;;;;;;;;;5072958;28;20254;-84
2022/07/26 01:08:16;;;;;;;2.57;1.10;;;;;;;;;;5074717;28;20203;-84
2022/07/26 01:10:46;;;;;;;1.37;0.97;;;;;;;;;;5089930;28;20202;-84
2022/07/26 01:13:19;;;;;;;3.10;1.57;;;;;;;;;;5072579;28;20222;-84
2022/07/26 01:15:48;;;;;;;1.23;0.87;;;;;;;;;;5072528;28;20313;-84
2022/07/26 01:18:16;;;;;;;0.40;0.40;;;;;;;;;;5072270;28;20200;-84
2022/07/26 01:20:45;;;;;;;0.73;0.73;;;;;;;;;;5072450;28;20208;-84
2022/07/26 01:23:14;;;;;;;2.10;1.43;;;;;;;;;;5072472;28;20207;-84
2022/07/26 01:25:43;;;;;;;4.50;1.17;;;;;;;;;;5073385;28;20196;-84
2022/07/26 01:28:15;;;;;;;0.60;0.60;;;;;;;;;;5072729;28;20297;-84
2022/07/26 01:30:47;;;;;;;2.40;2.20;;;;;;;;;;5073514;28;20207;-84
2022/07/26 01:33:16;;;;;;;1.00;1.00;;;;;;;;;;5080918;28;20228;-84
2022/07/26 01:35:44;;;;;;;9.37;0.90;;;;;;;;;;5087009;28;20237;-84
2022/07/26 01:38:13;;;;;;;3.07;1.10;;;;;;;;;;5072635;28;20198;-84
2022/07/26 01:40:42;;;;;;;2.20;0.93;;;;;;;;;;5072501;28;20198;-84
2022/07/26 01:43:11;;;;;;;5.00;1.97;;;;;;;;;;5072454;28;20201;-84
2022/07/26 01:45:39;;;;;;;6.43;1.00;;;;;;;;;;5086432;28;20210;-84
2022/07/26 01:48:08;;;;;;;1.63;1.13;;;;;;;;;;5077122;28;20211;-83
2022/07/26 01:50:37;;;;;;;0.80;0.80;;;;;;;;;;5071976;28;20198;-84
2022/07/26 01:53:05;;;;;;;1.57;1.30;;;;;;;;;;5071761;28;20213;-84
2022/07/26 01:55:33;;;;;;;0.83;0.83;;;;;;;;;;5072054;28;20202;-84
2022/07/26 01:58:03;;;;;;;0.77;0.77;;;;;;;;;;5088959;28;20207;-84
2022/07/26 02:00:32;;;;;;;5.77;1.50;;;;;;;;;;5078780;28;20199;-84
2022/07/26 02:03:01;;;;;;;1.27;1.17;;;;;;;;;;5076561;28;20227;-84
2022/07/26 02:05:29;;;;;;;1.03;0.93;;;;;;;;;;5071843;28;20196;-84
2022/07/26 02:07:58;;;;;;;0.40;0.40;;;;;;;;;;5083972;28;20203;-84
2022/07/26 02:10:59;;;;;;;3.27;1.63;;;;;;;;;;5095360;28;20295;-82
2022/07/26 02:13:18;;;;;;;0.43;0.43;;;;;;;;;;5075755;28;20226;-83
2022/07/26 02:15:47;;;;;;;1.17;1.07;;;;;;;;;;5076276;28;20205;-82
2022/07/26 02:18:16;;;;;;;6.33;1.77;;;;;;;;;;5092470;28;20217;-82
2022/07/26 02:20:44;;;;;;;2.23;1.17;;;;;;;;;;5076453;28;20200;-81
2022/07/26 02:23:13;;;;;;;1.10;0.93;;;;;;;;;;5079240;28;20202;-82
2022/07/26 02:25:41;;;;;;;0.90;0.90;;;;;;;;;;5076673;28;20211;-82
2022/07/26 02:28:10;;;;;;;8.50;1.47;;;;;;;;;;5078131;28;20217;-82
2022/07/26 02:30:40;;;;;;;0.40;0.40;;;;;;;;;;5085121;28;20207;-82
2022/07/26 02:33:08;;;;;;;8.13;1.63;;;;;;;;;;5075269;28;20226;-82
2022/07/26 02:35:37;;;;;;;2.33;1.67;;;;;;;;;;5077289;28;20226;-88
2022/07/26 02:38:06;;;;;;;0.60;0.60;;;;;;;;;;5076220;28;20196;-88
2022/07/26 02:40:35;;;;;;;4.80;1.80;;;;;;;;;;5076373;28;20221;-87
2022/07/26 02:43:04;;;;;;;6.97;1.13;;;;;;;;;;5075394;28;20190;-87
2022/07/26 02:45:33;;;;;;;1.17;0.67;;;;;;;;;;5075502;28;20200;-86
2022/07/26 02:48:03;;;;;;;0.30;0.30;;;;;;;;;;5075138;28;20208;-85
2022/07/26 02:50:32;;;;;;;3.80;1.47;;;;;;;;;;5076585;28;20276;-85
2022/07/26 02:53:00;;;;;;;6.53;2.07;;;;;;;;;;5076149;28;20215;-84
2022/07/26 02:55:29;;;;;;;1.03;0.93;;;;;;;;;;5075595;28;20202;-86
2022/07/26 02:57:57;;;;;;;1.30;1.20;;;;;;;;;;5091788;28;20218;-85
2022/07/26 03:00:27;;;;;;;4.50;4.27;;;;;;;;;;5075037;28;20208;-84
2022/07/26 03:02:55;;;;;;;5.00;2.10;;;;;;;;;;5074913;28;20194;-84
2022/07/26 03:05:25;;;;;;;1.97;1.33;;;;;;;;;;5075129;28;20268;-85
2022/07/26 03:07:54;;;;;;;2.77;2.60;;;;;;;;;;5080566;28;20208;-86
2022/07/26 03:10:22;;;;;;;1.27;1.17;;;;;;;;;;5088101;28;20224;-85
2022/07/26 03:12:50;;;;;;;1.40;1.30;;;;;;;;;;5075043;28;20225;-85
2022/07/26 03:15:19;;;;;;;3.00;0.80;;;;;;;;;;5074889;28;20212;-85
2022/07/26 03:17:48;;;;;;;0.77;0.77;;;;;;;;;;5075659;28;20202;-85
2022/07/26 03:20:17;;;;;;;1.73;1.37;;;;;;;;;;5074688;28;20212;-85
2022/07/26 03:22:47;;;;;;;1.80;1.37;;;;;;;;;;5074779;28;20189;-85
2022/07/26 03:25:15;;;;;;;1.00;1.00;;;;;;;;;;5075888;28;20237;-85
2022/07/26 03:27:44;;;;;;;2.53;1.03;;;;;;;;;;5090482;28;20213;-85
2022/07/26 03:30:13;;;;;;;6.50;1.23;;;;;;;;;;5075810;28;20206;-86
2022/07/26 03:32:41;;;;;;;2.63;0.70;;;;;;;;;;5075186;28;20224;-86
2022/07/26 03:35:10;;;;;;;0.50;0.50;;;;;;;;;;5081725;28;20221;-87
2022/07/26 03:37:38;;;;;;;0.40;0.40;;;;;;;;;;5075658;28;20304;-86
2022/07/26 03:40:15;;;;;;;0.37;0.37;;;;;;;;;;5074319;28;20194;-87
2022/07/26 03:42:43;;;;;;;0.50;0.50;;;;;;;;;;5074446;28;20205;-86
2022/07/26 03:45:13;;;;;;;4.23;0.60;;;;;;;;;;5075830;28;20205;-87
2022/07/26 03:47:41;;;;;;;0.53;0.53;;;;;;;;;;5075505;28;20269;-87
2022/07/26 03:50:12;;;;;;;0.43;0.43;;;;;;;;;;5074601;28;20206;-88
2022/07/26 03:52:41;;;;;;;0.70;0.70;;;;;;;;;;5073991;28;20205;-87
2022/07/26 03:57:57;;;;;;;0.30;0.30;;;;;;;;;;5079760;28;20228;-87
2022/07/26 04:00:25;;;;;;;0.93;0.93;;;;;;;;;;5074882;28;20228;-88
2022/07/26 04:02:54;;;;;;;1.40;1.30;;;;;;;;;;5075642;28;20226;-89
2022/07/26 04:05:22;;;;;;;0.30;0.30;;;;;;;;;;5078465;28;20289;-89
2022/07/26 04:07:53;;;;;;;1.80;0.90;;;;;;;;;;5075688;28;20202;-88
2022/07/26 04:10:23;;;;;;;2.37;0.97;;;;;;;;;;5075478;28;20194;-87
2022/07/26 04:12:52;;;;;;;2.00;1.57;;;;;;;;;;5079847;28;20199;-88
2022/07/26 04:15:22;;;;;;;3.33;1.27;;;;;;;;;;5074169;28;20200;-86
2022/07/26 04:17:50;;;;;;;0.50;0.50;;;;;;;;;;5073979;28;20202;-87
2022/07/26 04:20:19;;;;;;;0.50;0.50;;;;;;;;;;5075261;28;20216;-88
2022/07/26 04:22:47;;;;;;;0.80;0.80;;;;;;;;;;5075456;28;20202;-87
2022/07/26 04:25:15;;;;;;;0.60;0.60;;;;;;;;;;5074219;28;20234;-87
2022/07/26 04:27:44;;;;;;;7.27;1.27;;;;;;;;;;5073994;28;20203;-86
2022/07/26 04:30:13;;;;;;;2.53;1.10;;;;;;;;;;5073032;28;20203;-87
2022/07/26 04:32:45;;;;;;;1.50;1.47;;;;;;;;;;5074007;28;20187;-86
2022/07/26 04:35:14;;;;;;;5.63;1.13;;;;;;;;;;5073412;28;20255;-86
2022/07/26 04:37:44;;;;;;;0.63;0.53;;;;;;;;;;5074174;28;20297;-86
2022/07/26 04:40:16;;;;;;;0.60;0.60;;;;;;;;;;5075011;28;20202;-86
2022/07/26 04:42:48;;;;;;;1.50;1.07;;;;;;;;;;5088068;28;20198;-86
2022/07/26 04:45:17;;;;;;;0.83;0.83;;;;;;;;;;5074006;28;20195;-86
2022/07/26 04:47:48;;;;;;;0.40;0.40;;;;;;;;;;5073866;28;20207;-86
2022/07/26 04:50:17;;;;;;;1.67;1.00;;;;;;;;;;5074630;28;20214;-85
2022/07/26 04:52:45;;;;;;;2.07;1.93;;;;;;;;;;5074959;28;20202;-86
2022/07/26 04:55:14;;;;;;;0.70;0.70;;;;;;;;;;5073566;28;20205;-85
2022/07/26 04:57:43;;;;;;;1.63;1.57;;;;;;;;;;5074212;28;20192;-86
2022/07/26 05:00:15;;;;;;;2.37;1.10;;;;;;;;;;5086916;28;20242;-85
2022/07/26 05:02:51;;;;;;;2.73;1.10;;;;;;;;;;5084036;28;20197;-85
2022/07/26 05:05:21;;;;;;;1.20;1.00;;;;;;;;;;5076784;28;20266;-86
2022/07/26 05:07:50;;;;;;;0.50;0.50;;;;;;;;;;5077981;28;20255;-85
2022/07/26 05:10:20;;;;;;;1.67;0.80;;;;;;;;;;5073380;28;20207;-85
2022/07/26 05:12:51;;;;;;;5.07;1.50;;;;;;;;;;5073400;28;20205;-85
2022/07/26 05:15:19;;;;;;;2.60;1.03;;;;;;;;;;5073237;28;20228;-85
2022/07/26 05:17:48;;;;;;;2.87;1.27;;;;;;;;;;5074468;28;20193;-85
2022/07/26 05:20:18;;;;;;;1.10;0.73;;;;;;;;;;5074408;28;20243;-84
2022/07/26 05:22:47;;;;;;;1.57;0.70;;;;;;;;;;5073685;28;20202;-84
2022/07/26 05:25:15;;;;;;;0.77;0.70;;;;;;;;;;5082189;28;20250;-84
2022/07/26 05:27:44;;;;;;;3.20;0.87;;;;;;;;;;5087085;28;20218;-84
2022/07/26 05:30:12;;;;;;;0.70;0.70;;;;;;;;;;5073750;28;20207;-84
2022/07/26 05:32:41;;;;;;;0.40;0.40;;;;;;;;;;5089668;28;20202;-84
2022/07/26 05:35:09;;;;;;;2.47;1.33;;;;;;;;;;5082745;28;20227;-85
2022/07/26 05:37:39;;;;;;;0.93;0.60;;;;;;;;;;5090206;28;20206;-85
2022/07/26 05:40:09;;;;;;;0.50;0.50;;;;;;;;;;5079090;28;20200;-82
2022/07/26 05:42:37;;;;;;;1.40;1.00;;;;;;;;;;5076273;28;20201;-83
2022/07/26 05:45:06;;;;;;;0.50;0.50;;;;;;;;;;5077326;28;20197;-83
2022/07/26 05:47:34;;;;;;;0.70;0.70;;;;;;;;;;5088121;28;20212;-83
2022/07/26 05:50:03;;;;;;;0.30;0.30;;;;;;;;;;5080343;28;20244;-83
2022/07/26 05:52:31;;;;;;;0.40;0.40;;;;;;;;;;5086494;28;20204;-83
2022/07/26 05:55:01;;;;;;;0.60;0.60;;;;;;;;;;5078905;28;20234;-83
2022/07/26 05:57:29;;;;;;;0.40;0.40;;;;;;;;;;5077467;28;20223;-83
2022/07/26 05:59:58;;;;;;;8.40;1.17;;;;;;;;;;5077476;28;20287;-83
2022/07/26 06:02:26;;;;;;;0.43;0.43;;;;;;;;;;5078476;28;20211;-83
2022/07/26 06:04:55;;;;;;;5.70;1.13;;;;;;;;;;5077490;28;20231;-84
2022/07/26 06:07:23;;;;;;;3.50;0.87;;;;;;;;;;5077063;28;20202;-84
2022/07/26 06:09:52;;;;;;;3.13;0.73;;;;;;;;;;5086773;28;20207;-84
2022/07/26 06:12:21;;;;;;;1.37;0.60;;;;;;;;;;5078407;28;20198;-83
2022/07/26 06:14:50;;;;;;;6.70;1.07;;;;;;;;;;5076074;28;20298;-83
2022/07/26 06:17:18;;;;;;;0.80;0.80;;;;;;;;;;5075945;28;20214;-83
2022/07/26 06:19:47;;;;;;;4.80;1.07;;;;;;;;;;5077112;28;20280;-83
2022/07/26 06:22:15;;;;;;;4.97;1.10;;;;;;;;;;5088677;28;20214;-82
2022/07/26 06:24:44;;;;;;;3.00;1.40;;;;;;;;;;5076751;28;20217;-82
2022/07/26 06:27:12;;;;;;;0.87;0.63;;;;;;;;;;5092552;28;20198;-83
2022/07/26 06:29:47;;;;;;;4.10;1.23;;;;;;;;;;5079423;28;20202;-83
2022/07/26 06:32:15;;;;;;;4.07;1.00;;;;;;;;;;5076302;28;20201;-83
2022/07/26 06:34:44;;;;;;;9.47;2.90;;;;;;;;;;5075392;28;20243;-82
2022/07/26 06:37:12;;;;;;;3.00;0.73;;;;;;;;;;5076470;28;20213;-83
2022/07/26 06:39:41;;;;;;;5.40;0.87;;;;;;;;;;5075392;28;20292;-83
2022/07/26 06:42:10;;;;;;;1.80;0.60;;;;;;;;;;5075677;28;20227;-83
2022/07/26 06:44:38;;;;;;;1.23;0.67;;;;;;;;;;5075408;28;20205;-82
2022/07/26 06:47:08;;;;;;;0.60;0.60;;;;;;;;;;5075644;28;20198;-83
2022/07/26 06:49:37;;;;;;;0.57;0.53;;;;;;;;;;5089717;28;20194;-82
2022/07/26 06:52:06;;;;;;;1.70;0.90;;;;;;;;;;5074559;28;20244;-83
2022/07/26 06:54:34;;;;;;;2.80;0.73;;;;;;;;;;5076530;28;20304;-83
2022/07/26 06:57:03;;;;;;;2.10;1.10;;;;;;;;;;5083931;28;20230;-83
2022/07/26 06:59:31;;;;;;;0.50;0.50;;;;;;;;;;5080628;28;20223;-83
2022/07/26 07:02:03;;;;;;;0.30;0.30;;;;;;;;;;5079748;28;20207;-82
2022/07/26 07:04:33;;;;;;;1.03;0.77;;;;;;;;;;5075212;28;20202;-82
2022/07/26 07:07:04;;;;;;;5.10;0.97;;;;;;;;;;5075652;28;20226;-82
2022/07/26 07:09:36;;;;;;;0.93;0.93;;;;;;;;;;5084942;28;20227;-82
2022/07/26 07:12:06;;;;;;;0.60;0.60;;;;;;;;;;5082049;28;20291;-82
2022/07/26 07:14:38;;;;;;;5.10;1.20;;;;;;;;;;5085853;28;20214;-82
2022/07/26 07:17:07;;;;;;;0.73;0.73;;;;;;;;;;5076017;28;20200;-83
2022/07/26 07:19:41;;;;;;;0.80;0.80;;;;;;;;;;5075881;28;20200;-82
2022/07/26 07:22:11;;;;;;;1.13;0.60;;;;;;;;;;5087245;28;20234;-82
2022/07/26 07:24:40;;;;;;;1.00;0.67;;;;;;;;;;5075594;28;20235;-83
2022/07/26 07:27:09;;;;;;;0.83;0.83;;;;;;;;;;5074507;28;20292;-82
2022/07/26 07:29:40;;;;;;;1.20;0.63;;;;;;;;;;5078353;28;20251;-82
2022/07/26 07:32:10;;;;;;;0.60;0.60;;;;;;;;;;5075035;28;20240;-82
2022/07/26 07:34:47;;;;;;;0.50;0.50;;;;;;;;;;5077964;28;20231;-82
2022/07/26 07:37:16;;;;;;;0.67;0.67;;;;;;;;;;5074264;28;20292;-82
2022/07/26 07:39:44;;;;;;;0.60;0.60;;;;;;;;;;5074273;28;20197;-82
2022/07/26 07:42:18;;;;;;;1.97;0.90;;;;;;;;;;5074373;28;20267;-82
2022/07/26 07:44:48;;;;;;;1.30;1.20;;;;;;;;;;5076164;28;20291;-82
2022/07/26 07:47:17;;;;;;;0.60;0.60;;;;;;;;;;5074488;28;20249;-82
2022/07/26 07:49:46;;;;;;;1.93;0.83;;;;;;;;;;5075037;28;20236;-82
2022/07/26 07:52:16;;;;;;;5.20;1.33;;;;;;;;;;5085083;28;20210;-82
2022/07/26 07:54:45;;;;;;;2.20;2.10;;;;;;;;;;5079705;28;20200;-82
2022/07/26 07:57:13;;;;;;;0.53;0.53;;;;;;;;;;5085264;28;20284;-82
2022/07/26 07:59:43;;;;;;;0.57;0.57;;;;;;;;;;5077494;28;20199;-82
2022/07/26 08:02:13;;;;;;;2.27;1.40;;;;;;;;;;5085052;28;20201;-82
2022/07/26 08:04:42;;;;;;;0.87;0.87;;;;;;;;;;5075198;28;20202;-81
2022/07/26 08:07:11;;;;;;;0.43;0.43;;;;;;;;;;5087650;28;20227;-81
2022/07/26 08:09:40;;;;;;;0.97;0.90;;;;;;;;;;5084213;28;20207;-83
2022/07/26 08:12:11;;;;;;;1.57;1.10;;;;;;;;;;5090758;28;20286;-81
2022/07/26 08:14:39;;;;;;;4.70;0.97;;;;;;;;;;5074806;28;20202;-81
2022/07/26 08:17:08;;;;;;;4.33;1.30;;;;;;;;;;5074542;28;20228;-81
2022/07/26 08:19:37;;;;;;;2.10;1.17;;;;;;;;;;5074852;28;20208;-81
2022/07/26 08:22:12;;;;;;;0.93;0.80;;;;;;;;;;5074684;28;20207;-82
2022/07/26 08:24:44;;;;;;;3.10;1.63;;;;;;;;;;5073432;28;20225;-82
2022/07/26 08:27:12;;;;;;;2.20;1.03;;;;;;;;;;5073162;28;20234;-82
2022/07/26 08:29:41;;;;;;;5.67;1.63;;;;;;;;;;5077547;28;20196;-82
2022/07/26 08:32:11;;;;;;;2.03;1.40;;;;;;;;;;5073405;28;20205;-82
2022/07/26 08:34:39;;;;;;;2.13;1.37;;;;;;;;;;5074018;28;20235;-82
2022/07/26 08:37:08;;;;;;;2.77;1.23;;;;;;;;;;5073413;28;20287;-81
2022/07/26 08:39:47;;;;;;;3.10;1.00;;;;;;;;;;5074987;28;20198;-82
2022/07/26 08:42:16;;;;;;;0.93;0.63;;;;;;;;;;5073090;28;20295;-81
2022/07/26 08:44:50;;;;;;;0.30;0.30;;;;;;;;;;5087368;28;20197;-82
2022/07/26 08:47:20;;;;;;;5.30;1.00;;;;;;;;;;5092930;28;20194;-82
2022/07/26 08:50:09;;;;;;;1.10;0.80;;;;;;;;;;5074367;28;20209;-81
2022/07/26 08:52:39;;;;;;;2.43;0.57;;;;;;;;;;5083792;28;20209;-82
2022/07/26 08:55:09;;;;;;;0.63;0.60;;;;;;;;;;5074582;28;20202;-83
2022/07/26 08:57:38;;;;;;;1.50;0.90;;;;;;;;;;5086451;28;20212;-82
2022/07/26 09:00:17;;;;;;;3.87;1.13;;;;;;;;;;5073535;28;20213;-82
2022/07/26 09:02:46;;;;;;;1.03;0.97;;;;;;;;;;5074094;28;20257;-82
2022/07/26 09:05:15;;;;;;;0.60;0.60;;;;;;;;;;5080064;28;20216;-82
2022/07/26 09:07:44;;;;;;;1.83;1.10;;;;;;;;;;5080814;28;20236;-82
2022/07/26 09:10:14;;;;;;;2.47;1.00;;;;;;;;;;5072536;28;20297;-82
2022/07/26 09:12:43;;;;;;;2.13;0.97;;;;;;;;;;5074046;28;20254;-82
2022/07/26 09:15:21;;;;;;;1.07;0.47;;;;;;;;;;5072947;28;20200;-82
2022/07/26 09:17:51;;;;;;;2.33;1.00;;;;;;;;;;5072710;28;20200;-82
2022/07/26 09:20:23;;;;;;;1.17;1.07;;;;;;;;;;5084106;28;20205;-82
2022/07/26 09:23:00;;;;;;;4.53;0.80;;;;;;;;;;5073929;28;20203;-82
2022/07/26 09:25:33;;;;;;;0.93;0.80;;;;;;;;;;5072754;28;20208;-83
2022/07/26 09:28:02;;;;;;;1.57;1.00;;;;;;;;;;5073541;28;20265;-82
2022/07/26 09:30:34;;;;;;;1.40;1.30;;;;;;;;;;5083677;28;20199;-83
2022/07/26 09:33:04;;;;;;;3.17;1.20;;;;;;;;;;5072825;28;20202;-83
2022/07/26 09:35:33;;;;;;;4.07;1.30;;;;;;;;;;5072672;28;20350;-83
2022/07/26 09:38:20;;;;;;;4.27;2.00;;;;;;;;;;5072698;28;20200;-82
2022/07/26 09:40:50;;;;;;;1.90;0.93;;;;;;;;;;5073553;28;20208;-83
2022/07/26 09:43:19;;;;;;;1.47;1.27;;;;;;;;;;5081033;28;20266;-83
2022/07/26 09:46:03;;;;;;;3.77;3.47;;;;;;;;;;5077144;28;20208;-82
2022/07/26 09:48:37;;;;;;;4.73;1.03;;;;;;;;;;5093868;28;20197;-83
2022/07/26 09:51:36;;;;;;;4.63;0.93;;;;;;;;;;5077813;28;20203;-83
2022/07/26 09:54:08;;;;;;;7.17;1.77;;;;;;;;;;5076231;28;20201;-82
2022/07/26 09:56:51;;;;;;;4.37;1.30;;;;;;;;;;5087017;28;20223;-82
2022/07/26 09:59:23;;;;;;;2.63;1.37;;;;;;;;;;5085994;28;20226;-82
2022/07/26 10:01:56;;;;;;;3.67;1.13;;;;;;;;;;5089138;28;20205;-82
2022/07/26 10:04:24;;;;;;;0.77;0.77;;;;;;;;;;5072069;28;20203;-83
2022/07/26 10:06:56;;;;;;;2.77;1.73;;;;;;;;;;5072638;28;20230;-83
2022/07/26 10:09:25;;;;;;;2.33;0.93;;;;;;;;;;5072112;28;20207;-83
2022/07/26 10:11:58;;;;;;;4.23;1.33;;;;;;;;;;5083806;28;20208;-83
2022/07/26 10:14:37;;;;;;;2.67;1.20;;;;;;;;;;5073910;28;20291;-83
2022/07/26 10:17:24;;;;;;;3.80;1.37;;;;;;;;;;5072809;28;20216;-83
2022/07/26 10:20:00;;;;;;;0.93;0.93;;;;;;;;;;5080764;28;20211;-83
2022/07/26 10:22:33;;;;;;;1.13;1.13;;;;;;;;;;5072613;28;20199;-83
2022/07/26 10:25:16;;;;;;;1.30;1.30;;;;;;;;;;5072668;28;20247;-84
2022/07/26 10:27:47;;;;;;;2.40;1.20;;;;;;;;;;5091299;28;20193;-85
2022/07/26 10:30:22;;;;;;;3.90;1.20;;;;;;;;;;5093990;28;20207;-85
2022/07/26 10:33:01;;;;;;;4.27;1.20;;;;;;;;;;5091356;28;20198;-83
2022/07/26 10:35:31;;;;;;;1.67;1.43;;;;;;;;;;5077258;28;20229;-84
2022/07/26 10:38:00;;;;;;;3.17;1.63;;;;;;;;;;5076538;28;20221;-84
2022/07/26 10:40:29;;;;;;;1.93;0.93;;;;;;;;;;5077921;28;20197;-84
2022/07/26 10:43:09;;;;;;;6.40;0.90;;;;;;;;;;5078217;28;20228;-83
2022/07/26 10:46:19;;;;;;;2.27;1.37;;;;;;;;;;5088937;28;20219;-83
2022/07/26 10:48:56;;;;;;;1.47;1.37;;;;;;;;;;5074613;28;20287;-84
2022/07/26 10:51:28;;;;;;;0.93;0.93;;;;;;;;;;5092383;28;20214;-84
2022/07/26 10:54:02;;;;;;;1.67;1.00;;;;;;;;;;5084859;28;20203;-83
2022/07/26 10:56:31;;;;;;;15.13;1.43;;;;;;;;;;5078611;28;20257;-83
2022/07/26 10:59:02;;;;;;;1.43;0.90;;;;;;;;;;5078138;28;20199;-83
2022/07/26 11:01:34;;;;;;;1.30;1.20;;;;;;;;;;5076683;28;20258;-84
2022/07/26 11:04:03;;;;;;;0.83;0.83;;;;;;;;;;5078181;28;20204;-84
2022/07/26 11:06:33;;;;;;;1.43;0.87;;;;;;;;;;5092193;28;20205;-84
2022/07/26 11:09:11;;;;;;;4.90;1.17;;;;;;;;;;5077436;28;20230;-84
2022/07/26 11:11:40;;;;;;;2.27;1.37;;;;;;;;;;5077862;28;20234;-84
2022/07/26 11:14:16;;;;;;;3.67;1.40;;;;;;;;;;5079087;28;20204;-84
2022/07/26 11:16:47;;;;;;;3.00;0.80;;;;;;;;;;5076047;28;20273;-84
2022/07/26 11:19:18;;;;;;;3.30;0.97;;;;;;;;;;5075726;28;20200;-84
2022/07/26 11:21:48;;;;;;;1.40;0.83;;;;;;;;;;5076224;28;20238;-84
2022/07/26 11:24:17;;;;;;;8.50;0.87;;;;;;;;;;5076197;28;20248;-84
2022/07/26 11:26:46;;;;;;;0.60;0.60;;;;;;;;;;5084637;28;20204;-84
2022/07/26 11:29:26;;;;;;;0.70;0.70;;;;;;;;;;5075755;28;20204;-84
2022/07/26 11:32:15;;;;;;;1.17;0.80;;;;;;;;;;5086860;28;20200;-84
2022/07/26 11:34:46;;;;;;;0.80;0.80;;;;;;;;;;5075838;28;20258;-83
2022/07/26 11:37:14;;;;;;;3.37;1.27;;;;;;;;;;5085667;28;20220;-84
2022/07/26 11:39:43;;;;;;;1.67;1.17;;;;;;;;;;5075648;28;20199;-84
2022/07/26 11:42:15;;;;;;;24.43;1.60;;;;;;;;;;5075450;28;20210;-83
2022/07/26 11:45:03;;;;;;;1.83;1.10;;;;;;;;;;5091024;28;20200;-83
2022/07/26 11:47:31;;;;;;;1.03;0.70;;;;;;;;;;5075777;28;20204;-83
2022/07/26 11:50:05;;;;;;;1.90;0.80;;;;;;;;;;5076156;28;20256;-83
2022/07/26 11:52:49;;;;;;;1.93;1.00;;;;;;;;;;5076129;28;20246;-83
2022/07/26 11:55:25;;;;;;;2.70;0.80;;;;;;;;;;5077027;28;20199;-84
2022/07/26 11:57:54;;;;;;;4.13;1.20;;;;;;;;;;5076621;28;20222;-84
2022/07/26 12:00:24;;;;;;;1.73;1.10;;;;;;;;;;5084018;28;20207;-83
2022/07/26 12:02:54;;;;;;;5.03;1.17;;;;;;;;;;5096922;28;20217;-83
2022/07/26 12:05:23;;;;;;;1.03;0.93;;;;;;;;;;5076990;28;20280;-82
2022/07/26 12:07:59;;;;;;;0.87;0.70;;;;;;;;;;5076364;28;20263;-84
2022/07/26 12:10:28;;;;;;;2.83;1.03;;;;;;;;;;5090113;28;20327;-83
2022/07/26 12:13:13;;;;;;;4.47;1.03;;;;;;;;;;5085633;28;20228;-84
2022/07/26 12:15:47;;;;;;;2.60;1.30;;;;;;;;;;5092851;28;20214;-84
2022/07/26 12:18:23;;;;;;;0.50;0.50;;;;;;;;;;5076074;28;20223;-84
2022/07/26 12:21:02;;;;;;;0.40;0.40;;;;;;;;;;5089786;28;20250;-84
2022/07/26 12:23:44;;;;;;;0.90;0.80;;;;;;;;;;5076397;28;20230;-84
2022/07/26 12:26:23;;;;;;;3.70;1.23;;;;;;;;;;5075027;28;20239;-84
2022/07/26 12:28:51;;;;;;;5.10;1.03;;;;;;;;;;5075757;28;20292;-84
2022/07/26 12:31:25;;;;;;;3.13;1.00;;;;;;;;;;5078837;28;20330;-84
2022/07/26 12:33:54;;;;;;;0.50;0.50;;;;;;;;;;5075417;28;20232;-84
2022/07/26 12:36:23;;;;;;;0.53;0.53;;;;;;;;;;5075675;28;20209;-84
2022/07/26 12:38:56;;;;;;;1.30;1.20;;;;;;;;;;5075499;28;20220;-84
2022/07/26 12:41:33;;;;;;;0.73;0.70;;;;;;;;;;5089901;28;20232;-85
2022/07/26 12:44:02;;;;;;;0.93;0.93;;;;;;;;;;5075343;28;20202;-84
2022/07/26 12:46:34;;;;;;;1.57;1.43;;;;;;;;;;5076354;28;20211;-84
2022/07/26 12:49:03;;;;;;;0.40;0.40;;;;;;;;;;5075386;28;20216;-84
2022/07/26 12:51:35;;;;;;;1.63;1.03;;;;;;;;;;5074780;28;20209;-84
2022/07/26 12:54:06;;;;;;;1.20;0.73;;;;;;;;;;5074457;28;20232;-84
2022/07/26 12:56:35;;;;;;;1.37;1.00;;;;;;;;;;5074947;28;20202;-84
2022/07/26 12:59:03;;;;;;;0.57;0.57;;;;;;;;;;5073877;28;20248;-84
2022/07/26 13:01:33;;;;;;;0.73;0.73;;;;;;;;;;5074105;28;20194;-84
2022/07/26 13:04:04;;;;;;;6.83;1.17;;;;;;;;;;5084154;28;20299;-84
2022/07/26 13:06:36;;;;;;;4.03;1.87;;;;;;;;;;5076436;28;20200;-84
2022/07/26 13:09:08;;;;;;;1.07;0.70;;;;;;;;;;5092699;28;20198;-84
2022/07/26 13:11:39;;;;;;;1.03;0.90;;;;;;;;;;5081006;28;20251;-84
2022/07/26 13:14:07;;;;;;;2.63;1.13;;;;;;;;;;5073913;28;20209;-83
2022/07/26 13:16:40;;;;;;;1.20;0.63;;;;;;;;;;5074351;28;20205;-84
2022/07/26 13:19:09;;;;;;;0.90;0.90;;;;;;;;;;5074820;28;20236;-84
2022/07/26 13:21:38;;;;;;;0.73;0.73;;;;;;;;;;5074221;28;20193;-84
2022/07/26 13:24:07;;;;;;;1.70;0.90;;;;;;;;;;5073763;28;20305;-84
2022/07/26 13:26:40;;;;;;;3.80;1.37;;;;;;;;;;5074153;28;20197;-84
2022/07/26 13:29:08;;;;;;;1.57;1.20;;;;;;;;;;5076645;28;20201;-84
2022/07/26 13:31:38;;;;;;;0.40;0.40;;;;;;;;;;5085286;28;20220;-84
2022/07/26 13:34:07;;;;;;;2.73;1.23;;;;;;;;;;5087072;28;20246;-83
2022/07/26 13:36:37;;;;;;;6.13;1.90;;;;;;;;;;5074125;28;20201;-84
2022/07/26 13:39:06;;;;;;;2.53;0.87;;;;;;;;;;5085546;28;20220;-82
2022/07/26 13:41:34;;;;;;;1.57;1.47;;;;;;;;;;5074210;28;20201;-83
2022/07/26 13:44:06;;;;;;;2.73;0.70;;;;;;;;;;5074349;28;20238;-84
2022/07/26 13:46:35;;;;;;;1.17;0.60;;;;;;;;;;5080370;28;20194;-79
2022/07/26 13:49:07;;;;;;;0.90;0.90;;;;;;;;;;5091055;28;20191;-83
2022/07/26 13:54:23;;;;;;;0.67;0.67;;;;;;;;;;5074356;28;20235;-84
2022/07/26 13:56:52;;;;;;;0.97;0.87;;;;;;;;;;5074173;28;20203;-83
2022/07/26 13:59:21;;;;;;;0.53;0.40;;;;;;;;;;5074542;28;20231;-83
2022/07/26 14:01:50;;;;;;;1.20;0.37;;;;;;;;;;5089431;28;20203;-85
2022/07/26 14:04:22;;;;;;;5.10;1.23;;;;;;;;;;5077057;28;20255;-84
2022/07/26 14:07:01;;;;;;;1.77;0.57;;;;;;;;;;5077762;28;20230;-84
2022/07/26 14:09:31;;;;;;;1.73;1.17;;;;;;;;;;5082472;28;20199;-84
2022/07/26 14:11:59;;;;;;;1.47;0.97;;;;;;;;;;5076541;28;20209;-84
2022/07/26 14:14:29;;;;;;;3.43;1.43;;;;;;;;;;5076972;28;20265;-84
2022/07/26 14:16:58;;;;;;;1.10;1.10;;;;;;;;;;5076831;28;20246;-84
2022/07/26 14:19:29;;;;;;;2.07;1.20;;;;;;;;;;5077086;28;20228;-83
2022/07/26 14:22:06;;;;;;;0.53;0.53;;;;;;;;;;5086804;28;20216;-84
2022/07/26 14:24:42;;;;;;;2.67;1.17;;;;;;;;;;5077405;28;20245;-84
2022/07/26 14:27:14;;;;;;;0.87;0.70;;;;;;;;;;5076297;28;20294;-84
2022/07/26 14:29:44;;;;;;;3.77;1.07;;;;;;;;;;5075936;28;20200;-84
2022/07/26 14:32:13;;;;;;;1.67;1.17;;;;;;;;;;5075772;28;20222;-84
2022/07/26 14:34:50;;;;;;;2.43;1.03;;;;;;;;;;5083909;28;20226;-83
2022/07/26 14:37:19;;;;;;;0.70;0.70;;;;;;;;;;5092537;28;20215;-82
2022/07/26 14:40:11;;;;;;;2.57;0.97;;;;;;;;;;5075726;28;20316;-83
2022/07/26 14:42:46;;;;;;;0.57;0.57;;;;;;;;;;5075442;28;20258;-84
2022/07/26 14:45:15;;;;;;;1.17;0.60;;;;;;;;;;5075753;28;20202;-84
2022/07/26 14:47:44;;;;;;;2.23;1.30;;;;;;;;;;5076161;28;20199;-84
2022/07/26 14:50:15;;;;;;;0.80;0.80;;;;;;;;;;5080825;28;20201;-83
2022/07/26 14:52:44;;;;;;;1.30;1.00;;;;;;;;;;5075719;28;20240;-84
2022/07/26 14:55:20;;;;;;;1.70;0.80;;;;;;;;;;5075370;28;20337;-84
2022/07/26 14:57:53;;;;;;;2.50;1.27;;;;;;;;;;5092712;28;20225;-83
2022/07/26 15:00:21;;;;;;;1.53;0.70;;;;;;;;;;5076396;28;20341;-84
2022/07/26 15:02:50;;;;;;;1.40;0.90;;;;;;;;;;5075513;28;20202;-85
2022/07/26 15:05:24;;;;;;;1.13;1.10;;;;;;;;;;5075367;28;20211;-83
2022/07/26 15:07:53;;;;;;;1.50;0.50;;;;;;;;;;5076285;28;20220;-83
2022/07/26 15:10:28;;;;;;;0.80;0.60;;;;;;;;;;5075411;28;20207;-83